Time;durP1;ratioP1;P1;durP2;ratioP2;P2;SDS_P1;SDS_P2;PMS_P1;PMS_P2;Temp;Humidity;BMP_temperature;BMP_pressure;BME280_temperature;BME280_humidity;BME280_pressure;Samples;Min_cycle;Max_cycle;Signal;HPM_P1;HPM_P2
2022/12/07 00:03:48;;;;;;;15.40;9.20;;;;;;;1.00;96.86;98027.60;419092;1304;101536;-40
2022/12/07 00:13:57;;;;;;;15.30;10.10;;;;;;;1.04;96.94;98022.36;419186;1305;107308;-39
2022/12/07 00:24:03;;;;;;;13.40;9.50;;;;;;;1.12;96.84;98022.70;419376;1304;97973;-39
2022/12/07 00:34:16;;;;;;;22.90;13.50;;;;;;;1.09;97.08;98021.20;419372;1304;110535;-39
2022/12/07 00:44:23;;;;;;;24.70;15.00;;;;;;;1.05;97.01;98016.16;419350;1293;106546;-38
2022/12/07 00:54:30;;;;;;;28.90;17.70;;;;;;;0.96;97.11;98014.37;419379;1303;98540;-39
2022/12/07 01:04:37;;;;;;;21.00;13.50;;;;;;;0.92;96.90;98012.35;419365;1297;109666;-40
2022/12/07 01:14:44;;;;;;;15.00;11.40;;;;;;;0.96;96.79;98010.50;419213;1295;108366;-38
2022/12/07 01:34:57;;;;;;;16.20;10.50;;;;;;;1.17;97.06;98001.41;419271;1301;108186;-40
2022/12/07 01:45:39;;;;;;;24.60;13.00;;;;;;;1.11;96.97;98001.55;419369;1304;99164;-39
2022/12/07 01:55:50;;;;;;;29.10;16.70;;;;;;;1.00;97.16;98001.91;419462;1304;112141;-39
2022/12/07 02:05:59;;;;;;;22.40;14.00;;;;;;;0.92;96.94;97990.27;419400;1302;108128;-39
2022/12/07 02:16:10;;;;;;;20.80;15.10;;;;;;;1.04;97.16;97987.67;419569;1289;99239;-38
2022/12/07 02:26:38;;;;;;;24.80;13.70;;;;;;;1.17;97.04;97985.23;420366;1281;107501;-38
2022/12/07 02:36:47;;;;;;;19.10;12.50;;;;;;;1.18;96.98;97980.89;419402;1302;99281;-39
2022/12/07 02:46:59;;;;;;;18.00;12.30;;;;;;;1.18;97.13;97973.30;419540;1295;111652;-38
2022/12/07 02:57:07;;;;;;;22.10;14.00;;;;;;;1.06;97.15;97962.48;419475;1306;106607;-39
2022/12/07 03:07:12;;;;;;;19.30;13.30;;;;;;;1.02;97.19;97952.16;419470;1302;99234;-38
2022/12/07 03:17:24;;;;;;;20.40;11.50;;;;;;;1.08;96.99;97956.73;419530;1295;112274;-39
2022/12/07 03:27:37;;;;;;;15.20;10.20;;;;;;;1.16;97.13;97959.05;419392;1305;109117;-40
2022/12/07 03:37:48;;;;;;;13.70;8.70;;;;;;;1.25;97.19;97951.30;419493;1295;98060;-39
2022/12/07 03:47:53;;;;;;;11.20;8.90;;;;;;;1.30;97.20;97941.15;419517;1306;107357;-38
2022/12/07 03:57:57;;;;;;;13.90;8.10;;;;;;;1.20;97.03;97932.10;419689;1303;99275;-37
2022/12/07 04:08:03;;;;;;;15.30;8.00;;;;;;;1.03;97.07;97928.42;419639;1295;110645;-38
2022/12/07 04:18:12;;;;;;;7.70;5.00;;;;;;;0.97;97.14;97931.05;419475;1304;108298;-38
2022/12/07 04:28:18;;;;;;;9.00;5.40;;;;;;;0.94;97.00;97934.05;419591;1295;98854;-39
2022/12/07 04:38:24;;;;;;;11.30;5.70;;;;;;;0.98;97.13;97928.02;419612;1303;107989;-39
2022/12/07 04:48:31;;;;;;;13.80;5.60;;;;;;;1.02;97.16;97917.20;419461;1295;98840;-39
2022/12/07 04:58:39;;;;;;;9.70;5.70;;;;;;;1.00;97.06;97914.58;419486;1304;111000;-40
2022/12/07 05:08:46;;;;;;;12.30;6.90;;;;;;;0.96;97.13;97910.73;419525;1305;107072;-38
2022/12/07 05:18:53;;;;;;;14.90;8.40;;;;;;;0.88;97.20;97912.24;419654;1304;98861;-40
2022/12/07 05:29:01;;;;;;;11.80;7.40;;;;;;;0.81;97.12;97909.27;419713;1287;108160;-39
2022/12/07 05:39:09;;;;;;;8.10;7.20;;;;;;;0.84;97.09;97914.25;419546;1302;98915;-38
2022/12/07 05:49:16;;;;;;;12.30;7.90;;;;;;;0.87;97.04;97925.50;419460;1304;111338;-39
2022/12/07 05:59:24;;;;;;;7.40;5.80;;;;;;;0.89;97.07;97933.75;419368;1304;108753;-38
2022/12/07 06:09:32;;;;;;;6.70;4.80;;;;;;;0.94;97.13;97935.09;419451;1304;99229;-37
2022/12/07 06:19:39;;;;;;;7.70;4.60;;;;;;;0.85;97.24;97936.29;419552;1300;109514;-38
2022/12/07 06:29:46;;;;;;;7.60;5.50;;;;;;;0.79;97.18;97934.84;419651;1295;99236;-40
2022/12/07 06:39:52;;;;;;;7.20;6.40;;;;;;;0.75;97.07;97942.56;419493;1295;112357;-38
2022/12/07 06:50:00;;;;;;;5.10;3.40;;;;;;;0.78;97.05;97944.55;419468;1300;107581;-39
2022/12/07 07:00:10;;;;;;;6.70;5.40;;;;;;;0.81;96.98;97945.65;419581;1297;99936;-39
2022/12/07 07:10:24;;;;;;;7.70;4.00;;;;;;;0.90;97.24;97953.46;419703;1293;109421;-39
2022/12/07 07:20:32;;;;;;;7.40;5.40;;;;;;;0.91;97.28;97958.85;419630;1304;99269;-38
2022/12/07 07:30:38;;;;;;;9.20;6.10;;;;;;;0.86;97.33;97958.48;419434;1291;111515;-38
2022/12/07 07:40:45;;;;;;;7.40;5.30;;;;;;;0.83;97.13;97961.02;419519;1304;109374;-39
2022/12/07 07:50:53;;;;;;;6.60;4.50;;;;;;;0.85;96.72;97962.91;419364;1304;98126;-39
2022/12/07 08:11:10;;;;;;;6.20;4.30;;;;;;;0.95;97.06;97973.70;419534;1295;107804;-39
2022/12/07 08:21:20;;;;;;;6.40;4.50;;;;;;;0.92;97.30;97977.11;419511;1296;99157;-39
2022/12/07 08:41:34;;;;;;;9.90;7.00;;;;;;;0.98;97.14;97985.77;419708;1296;99252;-37
2022/12/07 08:51:42;;;;;;;6.50;4.90;;;;;;;1.09;97.03;97992.23;419658;1302;112431;-39
2022/12/07 09:01:48;;;;;;;6.50;4.90;;;;;;;1.10;97.03;97995.25;419439;1304;109400;-38
2022/12/07 09:11:56;;;;;;;8.70;6.50;;;;;;;1.10;97.10;97995.81;419571;1295;99317;-39
2022/12/07 09:22:04;;;;;;;10.20;7.50;;;;;;;1.17;97.30;97986.55;419516;1304;107806;-39
2022/12/07 09:32:11;;;;;;;12.30;8.20;;;;;;;1.28;97.43;97977.04;419548;1301;99255;-40
2022/12/07 09:42:21;;;;;;;19.70;11.30;;;;;;;1.31;97.43;97972.23;419564;1304;112010;-39
2022/12/07 09:52:31;;;;;;;16.50;10.60;;;;;;;1.42;97.14;97961.05;419475;1290;107763;-38
2022/12/07 10:02:47;;;;;;;13.00;8.60;;;;;;;1.63;97.05;97956.85;419467;1304;99226;-38
2022/12/07 10:12:57;;;;;;;11.80;9.00;;;;;;;1.80;97.13;97952.13;419534;1295;109496;-39
2022/12/07 10:23:02;;;;;;;19.20;11.40;;;;;;;1.80;97.07;97941.54;419767;1297;99259;-40
2022/12/07 10:33:16;;;;;;;17.30;9.90;;;;;;;1.76;97.34;97937.66;419500;1304;113294;-38
2022/12/07 10:43:22;;;;;;;18.70;12.60;;;;;;;1.82;97.01;97930.67;419545;1304;107509;-38
2022/12/07 10:53:36;;;;;;;14.60;9.70;;;;;;;1.92;97.02;97932.33;419504;1290;99159;-39
2022/12/07 11:03:46;;;;;;;12.20;7.50;;;;;;;2.01;97.03;97927.56;419403;1294;111562;-42
2022/12/07 11:13:52;;;;;;;22.20;14.20;;;;;;;1.93;97.03;97925.86;419104;1296;600429;-40
2022/12/07 11:34:10;;;;;;;27.20;15.30;;;;;;;1.73;97.24;97901.20;419412;1294;111855;-39
2022/12/07 11:44:17;;;;;;;21.60;15.40;;;;;;;1.84;96.99;97889.99;419335;1304;106664;-39
2022/12/07 11:54:41;;;;;;;22.80;13.70;;;;;;;2.15;97.24;97883.21;419301;1289;99270;-39
2022/12/07 12:04:49;;;;;;;14.20;10.40;;;;;;;2.34;97.08;97863.70;419270;1304;108430;-40
2022/12/07 12:15:03;;;;;;;26.80;15.30;;;;;;;2.43;97.13;97851.66;419372;1301;99258;-40
2022/12/07 12:25:25;;;;;;;29.00;18.50;;;;;;;2.46;97.24;97849.53;419337;1294;112401;-40
2022/12/07 12:35:33;;;;;;;25.50;15.20;;;;;;;2.56;96.97;97845.95;419322;1297;108715;-38
2022/12/07 12:45:41;;;;;;;19.10;12.00;;;;;;;2.63;96.85;97838.98;419431;1301;99181;-38
2022/12/07 12:56:24;;;;;;;22.80;15.60;;;;;;;2.65;96.93;97832.80;419519;1304;113060;-37
2022/12/07 13:06:40;;;;;;;31.50;19.40;;;;;;;2.61;97.08;97819.06;419412;1304;108555;-39
2022/12/07 13:16:47;;;;;;;37.20;19.50;;;;;;;2.49;97.05;97817.98;419556;1289;98175;-39
2022/12/07 13:37:11;;;;;;;20.10;13.50;;;;;;;2.41;96.98;97831.34;419406;1302;99371;-39
2022/12/07 13:47:24;;;;;;;14.80;10.90;;;;;;;2.34;96.87;97841.14;419352;1294;112527;-38
2022/12/07 13:57:34;;;;;;;12.70;9.80;;;;;;;2.21;96.64;97854.27;419276;1300;106427;-39
2022/12/07 14:07:50;;;;;;;15.30;7.70;;;;;;;2.10;96.64;97869.30;419344;1295;99261;-38
2022/12/07 14:18:03;;;;;;;22.10;10.30;;;;;;;1.94;96.52;97865.55;419333;1296;107627;-39
2022/12/07 14:28:09;;;;;;;37.50;19.50;;;;;;;1.77;96.71;97868.55;419425;1285;99348;-39
2022/12/07 14:48:24;;;;;;;11.50;8.90;;;;;;;1.62;96.45;97883.84;419318;1304;106736;-40
2022/12/07 14:58:51;;;;;;;17.90;13.00;;;;;;;1.44;96.15;97885.69;419410;1290;98841;-40
2022/12/07 15:08:58;;;;;;;24.60;12.70;;;;;;;1.25;96.23;97888.31;419320;1304;108471;-39
2022/12/07 15:19:04;;;;;;;35.40;15.60;;;;;;;1.20;96.33;97885.27;419355;1304;99230;-40
2022/12/07 15:29:31;;;;;;;25.10;11.50;;;;;;;1.27;96.69;97873.14;419442;1304;113391;-38
2022/12/07 15:39:38;;;;;;;25.20;15.90;;;;;;;1.20;96.62;97869.80;419356;1304;108420;-38
2022/12/07 15:49:46;;;;;;;21.30;12.80;;;;;;;1.11;96.39;97872.80;419408;1304;99042;-37
2022/12/07 16:10:00;;;;;;;29.00;17.20;;;;;;;1.08;96.33;97870.90;419222;1297;98335;-39
2022/12/07 16:30:15;;;;;;;51.80;27.50;;;;;;;1.01;96.41;97872.00;419189;1304;107909;-40
2022/12/07 16:40:23;;;;;;;40.40;22.90;;;;;;;0.94;96.62;97869.65;419129;1301;99230;-39
2022/12/07 16:50:31;;;;;;;32.60;16.80;;;;;;;0.96;96.64;97876.05;419162;1303;112309;-38
2022/12/07 17:00:38;;;;;;;36.10;19.40;;;;;;;0.97;96.39;97878.02;419194;1305;109428;-38
2022/12/07 17:10:46;;;;;;;22.60;14.50;;;;;;;1.01;96.14;97889.15;419413;1298;99261;-39
2022/12/07 17:20:54;;;;;;;18.70;13.10;;;;;;;1.13;96.26;97896.54;419415;1302;107751;-38
2022/12/07 17:31:07;;;;;;;16.30;10.40;;;;;;;1.24;96.36;97902.85;419420;1305;99270;-38
2022/12/07 18:01:51;;;;;;;18.10;12.30;;;;;;;1.12;95.98;97928.09;419499;1300;97975;-39
2022/12/07 18:11:58;;;;;;;18.40;11.90;;;;;;;1.10;95.92;97935.04;419366;1304;110808;-37
2022/12/07 18:22:06;;;;;;;13.80;8.80;;;;;;;1.13;96.08;97931.91;419416;1295;108578;-38
2022/12/07 18:32:13;;;;;;;19.90;12.20;;;;;;;1.10;96.07;97931.23;418776;1305;98381;-37
2022/12/07 18:42:21;;;;;;;22.70;13.50;;;;;;;0.99;96.09;97929.63;418842;1305;112364;-38
2022/12/07 18:52:28;;;;;;;33.60;17.40;;;;;;;0.95;96.15;97924.60;418698;1297;107433;-38
2022/12/07 19:02:35;;;;;;;26.40;16.10;;;;;;;0.98;95.97;97913.48;418689;1291;99261;-38
2022/12/07 19:12:45;;;;;;;20.40;13.50;;;;;;;0.94;95.69;97914.63;418771;1310;110460;-38
2022/12/07 19:22:51;;;;;;;;;;;;;;;0.89;95.68;97922.48;418683;1305;108659;-39
2022/12/07 19:32:58;;;;;;;18.20;11.00;;;;;;;0.82;95.80;97935.73;419471;1305;99220;-39
2022/12/07 19:43:06;;;;;;;26.80;16.20;;;;;;;0.82;96.13;97941.82;419535;1299;108710;-39
2022/12/07 19:53:12;;;;;;;59.60;21.40;;;;;;;0.80;96.26;97949.29;419461;1301;101577;-38
2022/12/07 20:03:19;;;;;;;41.20;17.60;;;;;;;0.80;95.96;97946.16;419389;1304;112164;-39
2022/12/07 20:23:36;;;;;;;30.20;15.30;;;;;;;0.82;95.80;97941.06;419343;1305;98059;-40
2022/12/07 20:33:45;;;;;;;26.20;14.00;;;;;;;0.79;95.92;97938.63;419480;1306;107779;-38
2022/12/07 20:43:50;;;;;;;19.90;10.60;;;;;;;0.68;95.91;97932.87;419596;1292;98043;-39
2022/12/07 20:53:56;;;;;;;26.30;15.10;;;;;;;0.53;95.91;97937.73;419688;1304;112356;-38
2022/12/07 21:04:04;;;;;;;30.30;21.00;;;;;;;0.50;95.99;97942.42;419607;1305;108368;-39
2022/12/07 21:14:10;;;;;;;30.00;18.10;;;;;;;0.66;96.07;97947.91;419637;1306;99246;-38
2022/12/07 21:24:17;;;;;;;22.30;16.20;;;;;;;0.79;96.11;97944.92;419450;1303;107903;-38
2022/12/07 21:34:24;;;;;;;25.50;16.30;;;;;;;0.85;96.15;97945.94;419476;1301;99230;-40
2022/12/07 21:44:32;;;;;;;45.80;26.00;;;;;;;0.81;96.11;97950.26;419583;1306;110847;-38
2022/12/07 21:54:41;;;;;;;45.90;23.40;;;;;;;0.75;96.32;97949.91;419625;1300;109382;-39
2022/12/07 22:04:48;;;;;;;36.20;20.10;;;;;;;0.62;96.06;97960.48;419628;1305;98134;-39
2022/12/07 22:15:09;;;;;;;35.60;22.20;;;;;;;0.63;95.95;97968.02;419519;1305;109459;-38
2022/12/07 22:25:15;;;;;;;33.80;18.80;;;;;;;0.69;96.23;97966.24;419462;1295;98974;-38
2022/12/07 22:35:22;;;;;;;26.20;15.40;;;;;;;0.76;96.18;97966.23;419548;1295;111040;-39
2022/12/07 22:45:29;;;;;;;21.30;12.50;;;;;;;0.83;96.20;97974.46;419671;1295;108100;-38
2022/12/07 22:55:38;;;;;;;25.70;17.10;;;;;;;0.85;96.37;97977.13;419525;1293;99230;-39
2022/12/07 23:05:48;;;;;;;29.10;17.40;;;;;;;0.79;96.29;97980.19;419572;1305;111015;-39
2022/12/07 23:15:55;;;;;;;23.20;13.90;;;;;;;0.72;96.47;97987.77;419351;1302;273132;-40
2022/12/07 23:26:02;;;;;;;21.50;13.10;;;;;;;0.82;96.26;97978.77;419526;1295;99239;-39
2022/12/07 23:36:08;;;;;;;21.00;12.60;;;;;;;0.91;96.31;97978.55;419429;1300;105859;-37
2022/12/07 23:46:18;;;;;;;15.70;10.60;;;;;;;0.98;96.17;97979.52;419490;1304;98016;-38
2022/12/07 23:56:28;;;;;;;23.80;14.60;;;;;;;1.03;96.34;97980.92;419691;1295;110349;-38
